createdAt,value
2022-08-09T00:01:42.313Z,12.0
2022-08-09T00:06:49.478Z,11.94
2022-08-09T00:11:58.024Z,11.82
2022-08-09T00:17:11.280Z,11.59
2022-08-09T00:22:19.290Z,11.49
2022-08-09T00:27:33.974Z,11.57
2022-08-09T00:32:41.160Z,11.49
2022-08-09T00:37:48.984Z,11.68
2022-08-09T00:42:56.723Z,11.92
2022-08-09T00:48:04.088Z,12.06
2022-08-09T00:53:11.256Z,11.98
2022-08-09T00:58:19.100Z,11.84
2022-08-09T01:03:26.619Z,12.0
2022-08-09T01:08:33.499Z,12.04
2022-08-09T01:13:40.725Z,12.29
2022-08-09T01:18:48.521Z,12.21
2022-08-09T01:23:56.220Z,12.08
2022-08-09T01:29:12.544Z,12.1
2022-08-09T01:34:19.733Z,11.78
2022-08-09T01:39:27.647Z,11.89
2022-08-09T01:44:34.804Z,11.78
2022-08-09T01:49:42.569Z,11.65
2022-08-09T01:54:49.764Z,11.48
2022-08-09T02:00:05.275Z,11.51
2022-08-09T02:05:11.899Z,11.42
2022-08-09T02:10:18.878Z,11.58
2022-08-09T02:15:26.530Z,11.56
2022-08-09T02:20:33.491Z,11.47
2022-08-09T02:25:41.314Z,11.48
2022-08-09T02:30:48.554Z,11.8
2022-08-09T02:35:56.419Z,11.75
2022-08-09T02:41:04.289Z,11.58
2022-08-09T02:46:12.474Z,11.46
2022-08-09T02:51:27.582Z,11.46
2022-08-09T02:56:35.687Z,11.5
2022-08-09T03:01:43.686Z,11.49
2022-08-09T03:06:51.127Z,11.54
2022-08-09T03:12:04.081Z,11.39
2022-08-09T03:17:11.936Z,11.32
2022-08-09T03:22:20.689Z,11.3
2022-08-09T03:28:08.533Z,11.33
2022-08-09T03:33:16.669Z,11.25
2022-08-09T03:38:24.598Z,11.03
2022-08-09T03:43:39.099Z,11.16
2022-08-09T03:48:46.673Z,11.28
2022-08-09T03:53:53.854Z,11.44
2022-08-09T03:59:02.434Z,11.44
2022-08-09T04:04:10.964Z,11.52
2022-08-09T04:09:19.050Z,11.64
2022-08-09T04:14:26.935Z,12.48
2022-08-09T04:19:34.872Z,13.24
2022-08-09T04:24:42.504Z,13.93
2022-08-09T04:29:49.899Z,14.65
2022-08-09T04:34:58.140Z,15.44
2022-08-09T04:40:05.363Z,16.08
2022-08-09T04:45:13.111Z,16.71
2022-08-09T04:50:21.403Z,16.91
2022-08-09T04:55:29.427Z,17.48
2022-08-09T05:00:38.479Z,18.04
2022-08-09T05:05:46.730Z,19.18
2022-08-09T05:10:53.659Z,19.18
2022-08-09T05:16:02.003Z,19.08
2022-08-09T05:21:10.128Z,18.79
2022-08-09T05:26:18.975Z,18.64
2022-08-09T05:31:26.929Z,18.38
2022-08-09T05:36:34.132Z,18.86
2022-08-09T05:41:41.337Z,19.33
2022-08-09T05:46:49.173Z,19.08
2022-08-09T05:51:58.055Z,19.14
2022-08-09T05:57:05.669Z,19.49
2022-08-09T06:02:14.079Z,19.24
2022-08-09T06:07:21.945Z,19.47
2022-08-09T06:12:31.052Z,19.03
2022-08-09T06:17:38.810Z,18.83
2022-08-09T06:22:47.192Z,19.28
2022-08-09T06:27:54.458Z,19.91
2022-08-09T06:33:03.290Z,20.41
2022-08-09T06:38:10.935Z,20.46
2022-08-09T06:43:17.978Z,20.74
2022-08-09T06:48:25.178Z,20.99
2022-08-09T06:53:32.647Z,21.14
2022-08-09T06:58:39.890Z,21.78
2022-08-09T07:03:47.412Z,22.7
2022-08-09T07:08:54.911Z,23.14
2022-08-09T07:14:02.537Z,23.33
2022-08-09T07:19:09.031Z,24.62
2022-08-09T07:24:16.853Z,26.02
2022-08-09T07:29:24.406Z,29.02
2022-08-09T07:34:31.034Z,31.1
2022-08-09T07:39:39.849Z,33.24
2022-08-09T07:44:48.729Z,33.93
2022-08-09T07:49:56.057Z,35.46
2022-08-09T07:55:03.349Z,34.98
2022-08-09T08:00:11.735Z,37.22
2022-08-09T08:05:19.622Z,37.12
2022-08-09T08:10:32.683Z,34.08
2022-08-09T08:15:40.304Z,36.8
2022-08-09T08:20:47.774Z,37.72
2022-08-09T08:25:55.448Z,37.81
2022-08-09T08:31:02.635Z,40.58
2022-08-09T08:36:10.462Z,39.99
2022-08-09T08:41:18.025Z,37.62
2022-08-09T08:46:26.014Z,33.57
2022-08-09T08:51:34.617Z,32.06
2022-08-09T08:56:41.182Z,31.25
2022-08-09T09:01:49.527Z,31.73
2022-08-09T09:06:58.983Z,29.55
2022-08-09T09:12:05.651Z,28.26
2022-08-09T09:17:12.539Z,27.34
2022-08-09T09:22:20.642Z,30.65
2022-08-09T09:27:27.575Z,31.14
2022-08-09T09:32:36.474Z,36.42
2022-08-09T09:37:43.230Z,33.7
2022-08-09T09:42:51.189Z,35.64
2022-08-09T09:47:58.808Z,33.25
2022-08-09T09:53:07.251Z,33.1
2022-08-09T09:58:14.164Z,32.62
2022-08-09T10:03:21.217Z,32.04
2022-08-09T10:08:29.515Z,34.47
2022-08-09T10:13:36.854Z,34.48
2022-08-09T10:18:44.698Z,38.34
2022-08-09T10:23:52.921Z,41.86
2022-08-09T10:29:00.523Z,39.89
2022-08-09T10:34:06.937Z,39.3
2022-08-09T10:39:14.949Z,38.61
2022-08-09T10:44:23.258Z,41.06
2022-08-09T10:49:31.050Z,42.86
2022-08-09T10:54:37.018Z,37.42
2022-08-09T10:59:44.895Z,38.59
2022-08-09T11:04:51.519Z,43.02
2022-08-09T11:09:59.588Z,38.69
2022-08-09T11:15:06.567Z,41.04
2022-08-09T11:20:13.631Z,43.96
2022-08-09T11:25:21.239Z,44.58
2022-08-09T11:30:33.857Z,39.6
2022-08-09T11:35:40.034Z,34.85
2022-08-09T11:40:46.942Z,32.61
2022-08-09T11:45:54.179Z,38.76
2022-08-09T11:51:01.977Z,40.9
2022-08-09T11:56:09.965Z,36.11
2022-08-09T12:01:17.526Z,32.7
2022-08-09T12:06:25.477Z,31.65
2022-08-09T12:11:34.066Z,33.68
2022-08-09T12:16:41.052Z,32.78
2022-08-09T12:21:48.552Z,33.31
2022-08-09T12:26:55.585Z,33.34
2022-08-09T12:32:03.418Z,32.43
2022-08-09T12:37:10.620Z,32.74
2022-08-09T12:42:18.766Z,33.59
2022-08-09T12:47:27.690Z,31.75
2022-08-09T12:52:34.941Z,31.28
2022-08-09T12:57:42.090Z,31.16
2022-08-09T13:02:49.213Z,32.06
2022-08-09T13:07:57.524Z,31.2
2022-08-09T13:13:04.816Z,30.42
2022-08-09T13:18:13.071Z,30.69
2022-08-09T13:23:21.559Z,32.28
2022-08-09T13:28:28.378Z,33.42
2022-08-09T13:33:35.586Z,32.92
2022-08-09T13:38:43.633Z,32.66
2022-08-09T13:43:52.037Z,32.75
2022-08-09T13:48:58.679Z,33.45
2022-08-09T13:54:07.582Z,34.08
2022-08-09T13:59:15.618Z,33.54
2022-08-09T14:04:22.626Z,32.75
2022-08-09T14:09:31.118Z,33.28
2022-08-09T14:14:40.580Z,33.49
2022-08-09T14:19:48.055Z,32.66
2022-08-09T14:24:56.470Z,31.88
2022-08-09T14:30:04.137Z,30.64
2022-08-09T14:35:12.725Z,30.52
2022-08-09T14:40:19.496Z,30.73
2022-08-09T14:45:26.358Z,30.97
2022-08-09T14:50:34.964Z,30.93
2022-08-09T14:55:41.825Z,30.16
2022-08-09T15:00:49.025Z,29.6
2022-08-09T15:05:57.006Z,29.36
2022-08-09T15:11:05.195Z,29.02
2022-08-09T15:16:20.178Z,29.11
2022-08-09T15:21:29.546Z,30.24
2022-08-09T15:26:38.154Z,33.8
2022-08-09T15:31:46.565Z,35.54
2022-08-09T15:36:54.959Z,32.96
2022-08-09T15:42:01.474Z,30.85
2022-08-09T15:47:09.142Z,29.68
2022-08-09T15:52:17.374Z,28.98
2022-08-09T15:57:25.337Z,30.64
2022-08-09T16:02:32.701Z,29.9
2022-08-09T16:07:40.381Z,28.67
2022-08-09T16:12:48.442Z,28.08
2022-08-09T16:17:56.632Z,27.47
2022-08-09T16:23:04.474Z,26.69
2022-08-09T16:28:11.737Z,26.29
2022-08-09T16:33:19.306Z,25.97
2022-08-09T16:38:25.994Z,25.74
2022-08-09T16:43:32.698Z,25.6
2022-08-09T16:48:39.633Z,25.52
2022-08-09T16:53:48.043Z,25.44
2022-08-09T16:58:55.216Z,25.26
2022-08-09T17:04:02.382Z,24.98
2022-08-09T17:09:08.697Z,24.76
2022-08-09T17:14:16.647Z,24.64
2022-08-09T17:19:23.990Z,24.44
2022-08-09T17:24:30.300Z,24.25
2022-08-09T17:29:39.285Z,24.1
2022-08-09T17:34:47.431Z,23.9
2022-08-09T17:39:55.819Z,23.82
2022-08-09T17:45:03.795Z,23.54
2022-08-09T17:50:11.436Z,23.2
2022-08-09T17:55:20.055Z,23.01
2022-08-09T18:00:27.195Z,22.83
2022-08-09T18:05:35.435Z,22.64
2022-08-09T18:10:43.799Z,22.42
2022-08-09T18:15:51.255Z,22.21
2022-08-09T18:20:58.815Z,21.98
2022-08-09T18:26:06.649Z,21.86
2022-08-09T18:31:14.181Z,21.58
2022-08-09T18:36:23.128Z,21.25
2022-08-09T18:41:31.010Z,20.93
2022-08-09T18:46:37.692Z,20.68
2022-08-09T18:51:44.524Z,20.44
2022-08-09T18:56:51.765Z,20.08
2022-08-09T19:01:59.283Z,19.98
2022-08-09T19:07:07.671Z,19.62
2022-08-09T19:12:15.116Z,19.3
2022-08-09T19:17:23.283Z,18.91
2022-08-09T19:22:31.742Z,18.59
2022-08-09T19:27:39.200Z,18.32
2022-08-09T19:32:47.943Z,18.14
2022-08-09T19:37:56.017Z,18.03
2022-08-09T19:43:03.264Z,18.08
2022-08-09T19:48:10.864Z,17.91
2022-08-09T19:53:17.893Z,17.96
2022-08-09T19:58:25.015Z,18.23
2022-08-09T20:03:32.153Z,18.33
2022-08-09T20:08:39.949Z,18.36
2022-08-09T20:13:47.858Z,18.33
2022-08-09T20:18:54.935Z,18.28
2022-08-09T20:24:03.417Z,18.28
2022-08-09T20:29:09.970Z,18.34
2022-08-09T20:34:17.808Z,18.41
2022-08-09T20:39:26.169Z,18.41
2022-08-09T20:44:35.058Z,18.14
2022-08-09T20:49:42.294Z,17.82
2022-08-09T20:54:50.321Z,17.52
2022-08-09T21:00:00.200Z,17.3
2022-08-09T21:05:09.214Z,17.15
2022-08-09T21:10:17.679Z,17.3
2022-08-09T21:15:26.162Z,17.26
2022-08-09T21:20:33.485Z,17.22
2022-08-09T21:25:41.364Z,16.99
2022-08-09T21:30:49.502Z,16.62
2022-08-09T21:35:58.299Z,16.25
2022-08-09T21:41:06.158Z,16.02
2022-08-09T21:46:13.335Z,15.98
2022-08-09T21:51:21.110Z,16.03
2022-08-09T21:56:31.488Z,15.94
2022-08-09T22:01:41.169Z,15.72
2022-08-09T22:06:48.563Z,15.55
2022-08-09T22:11:56.598Z,15.44
2022-08-09T22:17:05.291Z,15.4
2022-08-09T22:22:13.648Z,15.18
2022-08-09T22:27:22.001Z,15.03
2022-08-09T22:32:30.357Z,14.85
2022-08-09T22:37:38.206Z,14.72
2022-08-09T22:42:45.847Z,14.71
2022-08-09T22:47:54.973Z,14.63
2022-08-09T22:53:03.363Z,14.4
2022-08-09T22:58:11.726Z,14.29
2022-08-09T23:03:21.594Z,14.1
2022-08-09T23:08:30.095Z,13.94
2022-08-09T23:13:38.469Z,13.88
2022-08-09T23:18:46.586Z,13.92
2022-08-09T23:23:53.821Z,14.05
2022-08-09T23:29:03.442Z,14.11
2022-08-09T23:34:10.780Z,13.98
2022-08-09T23:39:19.791Z,13.88
2022-08-09T23:44:27.890Z,13.84
2022-08-09T23:49:34.934Z,13.7
2022-08-09T23:54:42.728Z,13.54
2022-08-09T23:59:50.921Z,13.46
